sensor_id;sensor_type;location;lat;lon;timestamp;P1;durP1;ratioP1;P2;durP2;ratioP2
51174;SDS011;37240;50.104;20.010;2023-04-22T00:04:21;41.83;;;16.17;;
51174;SDS011;37240;50.104;20.010;2023-04-22T00:09:21;33.85;;;14.48;;
51174;SDS011;37240;50.104;20.010;2023-04-22T00:14:22;39.50;;;13.43;;
51174;SDS011;37240;50.104;20.010;2023-04-22T00:19:23;47.25;;;15.55;;
51174;SDS011;37240;50.104;20.010;2023-04-22T00:24:23;36.80;;;15.38;;
51174;SDS011;37240;50.104;20.010;2023-04-22T00:29:24;30.38;;;14.13;;
51174;SDS011;37240;50.104;20.010;2023-04-22T00:34:25;30.45;;;12.68;;
51174;SDS011;37240;50.104;20.010;2023-04-22T00:39:25;33.08;;;14.32;;
51174;SDS011;37240;50.104;20.010;2023-04-22T00:44:26;41.25;;;15.18;;
51174;SDS011;37240;50.104;20.010;2023-04-22T00:49:28;38.33;;;14.73;;
51174;SDS011;37240;50.104;20.010;2023-04-22T00:54:29;36.28;;;14.02;;
51174;SDS011;37240;50.104;20.010;2023-04-22T00:59:30;30.23;;;12.77;;
51174;SDS011;37240;50.104;20.010;2023-04-22T01:04:31;31.52;;;13.63;;
51174;SDS011;37240;50.104;20.010;2023-04-22T01:09:32;28.63;;;13.52;;
51174;SDS011;37240;50.104;20.010;2023-04-22T01:14:33;28.23;;;13.02;;
51174;SDS011;37240;50.104;20.010;2023-04-22T01:19:34;28.65;;;12.65;;
51174;SDS011;37240;50.104;20.010;2023-04-22T01:24:34;29.65;;;12.38;;
51174;SDS011;37240;50.104;20.010;2023-04-22T01:29:38;22.17;;;11.35;;
51174;SDS011;37240;50.104;20.010;2023-04-22T01:34:39;30.70;;;12.75;;
51174;SDS011;37240;50.104;20.010;2023-04-22T01:39:39;35.60;;;11.95;;
51174;SDS011;37240;50.104;20.010;2023-04-22T01:44:40;30.17;;;12.30;;
51174;SDS011;37240;50.104;20.010;2023-04-22T01:49:40;34.58;;;13.07;;
51174;SDS011;37240;50.104;20.010;2023-04-22T01:54:41;24.60;;;11.27;;
51174;SDS011;37240;50.104;20.010;2023-04-22T01:59:41;26.80;;;12.10;;
51174;SDS011;37240;50.104;20.010;2023-04-22T02:04:42;25.33;;;12.60;;
51174;SDS011;37240;50.104;20.010;2023-04-22T02:09:43;27.10;;;12.32;;
51174;SDS011;37240;50.104;20.010;2023-04-22T02:14:43;29.00;;;12.38;;
51174;SDS011;37240;50.104;20.010;2023-04-22T02:19:44;25.48;;;12.10;;
51174;SDS011;37240;50.104;20.010;2023-04-22T02:24:44;24.80;;;12.10;;
51174;SDS011;37240;50.104;20.010;2023-04-22T02:29:45;34.28;;;13.43;;
51174;SDS011;37240;50.104;20.010;2023-04-22T02:34:46;37.22;;;14.50;;
51174;SDS011;37240;50.104;20.010;2023-04-22T02:39:47;27.67;;;12.65;;
51174;SDS011;37240;50.104;20.010;2023-04-22T02:44:48;28.73;;;12.45;;
51174;SDS011;37240;50.104;20.010;2023-04-22T02:49:49;26.17;;;12.07;;
51174;SDS011;37240;50.104;20.010;2023-04-22T02:54:49;26.45;;;11.07;;
51174;SDS011;37240;50.104;20.010;2023-04-22T02:59:50;21.27;;;11.00;;
51174;SDS011;37240;50.104;20.010;2023-04-22T03:04:50;25.38;;;11.90;;
51174;SDS011;37240;50.104;20.010;2023-04-22T03:09:51;29.02;;;12.45;;
51174;SDS011;37240;50.104;20.010;2023-04-22T03:14:52;25.88;;;10.95;;
51174;SDS011;37240;50.104;20.010;2023-04-22T03:19:52;29.15;;;12.30;;
51174;SDS011;37240;50.104;20.010;2023-04-22T03:24:53;29.85;;;13.43;;
51174;SDS011;37240;50.104;20.010;2023-04-22T03:29:53;22.48;;;11.95;;
51174;SDS011;37240;50.104;20.010;2023-04-22T03:34:54;23.75;;;10.55;;
51174;SDS011;37240;50.104;20.010;2023-04-22T03:39:54;23.13;;;11.68;;
51174;SDS011;37240;50.104;20.010;2023-04-22T03:44:55;31.67;;;11.88;;
51174;SDS011;37240;50.104;20.010;2023-04-22T03:49:55;18.52;;;9.98;;
51174;SDS011;37240;50.104;20.010;2023-04-22T03:54:56;23.58;;;10.30;;
51174;SDS011;37240;50.104;20.010;2023-04-22T03:59:56;20.73;;;10.55;;
51174;SDS011;37240;50.104;20.010;2023-04-22T04:05:04;24.23;;;10.10;;
51174;SDS011;37240;50.104;20.010;2023-04-22T04:10:05;19.23;;;9.55;;
51174;SDS011;37240;50.104;20.010;2023-04-22T04:15:07;23.35;;;10.20;;
51174;SDS011;37240;50.104;20.010;2023-04-22T04:20:07;37.55;;;10.45;;
51174;SDS011;37240;50.104;20.010;2023-04-22T04:25:08;21.35;;;8.68;;
51174;SDS011;37240;50.104;20.010;2023-04-22T04:30:09;25.63;;;11.43;;
51174;SDS011;37240;50.104;20.010;2023-04-22T04:35:10;26.65;;;10.70;;
51174;SDS011;37240;50.104;20.010;2023-04-22T04:40:10;20.92;;;10.48;;
51174;SDS011;37240;50.104;20.010;2023-04-22T04:45:11;19.73;;;9.73;;
51174;SDS011;37240;50.104;20.010;2023-04-22T04:50:12;27.38;;;10.20;;
51174;SDS011;37240;50.104;20.010;2023-04-22T04:55:12;24.85;;;8.70;;
51174;SDS011;37240;50.104;20.010;2023-04-22T05:00:13;31.52;;;9.68;;
51174;SDS011;37240;50.104;20.010;2023-04-22T05:05:14;24.90;;;8.65;;
51174;SDS011;37240;50.104;20.010;2023-04-22T05:10:14;19.73;;;8.43;;
51174;SDS011;37240;50.104;20.010;2023-04-22T05:15:15;20.20;;;8.35;;
51174;SDS011;37240;50.104;20.010;2023-04-22T05:20:15;19.70;;;8.43;;
51174;SDS011;37240;50.104;20.010;2023-04-22T05:25:16;14.32;;;8.02;;
51174;SDS011;37240;50.104;20.010;2023-04-22T05:30:17;24.02;;;8.40;;
51174;SDS011;37240;50.104;20.010;2023-04-22T05:35:17;14.88;;;7.75;;
51174;SDS011;37240;50.104;20.010;2023-04-22T05:40:18;20.55;;;7.72;;
51174;SDS011;37240;50.104;20.010;2023-04-22T05:45:18;15.07;;;8.35;;
51174;SDS011;37240;50.104;20.010;2023-04-22T05:50:19;19.75;;;7.82;;
51174;SDS011;37240;50.104;20.010;2023-04-22T05:55:19;18.52;;;8.88;;
51174;SDS011;37240;50.104;20.010;2023-04-22T06:00:20;17.15;;;7.95;;
51174;SDS011;37240;50.104;20.010;2023-04-22T06:05:20;14.05;;;8.00;;
51174;SDS011;37240;50.104;20.010;2023-04-22T06:10:21;21.60;;;8.27;;
51174;SDS011;37240;50.104;20.010;2023-04-22T06:15:21;15.73;;;7.63;;
51174;SDS011;37240;50.104;20.010;2023-04-22T06:20:22;19.70;;;7.93;;
51174;SDS011;37240;50.104;20.010;2023-04-22T06:25:23;17.40;;;8.43;;
51174;SDS011;37240;50.104;20.010;2023-04-22T06:30:24;16.98;;;8.52;;
51174;SDS011;37240;50.104;20.010;2023-04-22T06:35:24;17.15;;;8.15;;
51174;SDS011;37240;50.104;20.010;2023-04-22T06:40:25;20.65;;;8.43;;
51174;SDS011;37240;50.104;20.010;2023-04-22T06:45:26;15.90;;;7.85;;
51174;SDS011;37240;50.104;20.010;2023-04-22T06:50:27;18.08;;;9.00;;
51174;SDS011;37240;50.104;20.010;2023-04-22T06:55:27;28.15;;;10.18;;
51174;SDS011;37240;50.104;20.010;2023-04-22T07:00:28;22.90;;;9.73;;
51174;SDS011;37240;50.104;20.010;2023-04-22T07:05:28;18.10;;;10.57;;
51174;SDS011;37240;50.104;20.010;2023-04-22T07:10:29;19.65;;;10.20;;
51174;SDS011;37240;50.104;20.010;2023-04-22T07:15:29;27.15;;;11.98;;
51174;SDS011;37240;50.104;20.010;2023-04-22T07:20:30;21.92;;;11.35;;
51174;SDS011;37240;50.104;20.010;2023-04-22T07:25:30;21.00;;;10.80;;
51174;SDS011;37240;50.104;20.010;2023-04-22T07:30:31;19.08;;;9.75;;
51174;SDS011;37240;50.104;20.010;2023-04-22T07:35:31;15.88;;;8.85;;
51174;SDS011;37240;50.104;20.010;2023-04-22T07:40:32;22.45;;;10.18;;
51174;SDS011;37240;50.104;20.010;2023-04-22T07:45:33;19.73;;;10.20;;
51174;SDS011;37240;50.104;20.010;2023-04-22T07:50:33;25.42;;;10.95;;
51174;SDS011;37240;50.104;20.010;2023-04-22T07:55:34;20.70;;;9.70;;
51174;SDS011;37240;50.104;20.010;2023-04-22T08:00:34;21.13;;;9.90;;
51174;SDS011;37240;50.104;20.010;2023-04-22T08:05:35;18.58;;;9.00;;
51174;SDS011;37240;50.104;20.010;2023-04-22T08:10:35;17.13;;;9.45;;
51174;SDS011;37240;50.104;20.010;2023-04-22T08:15:36;21.80;;;8.52;;
51174;SDS011;37240;50.104;20.010;2023-04-22T08:20:37;19.83;;;9.48;;
51174;SDS011;37240;50.104;20.010;2023-04-22T08:25:37;20.58;;;8.88;;
51174;SDS011;37240;50.104;20.010;2023-04-22T08:30:38;23.73;;;9.18;;
51174;SDS011;37240;50.104;20.010;2023-04-22T08:35:39;22.42;;;8.93;;
51174;SDS011;37240;50.104;20.010;2023-04-22T08:40:40;16.38;;;9.20;;
51174;SDS011;37240;50.104;20.010;2023-04-22T08:45:41;13.63;;;8.07;;
51174;SDS011;37240;50.104;20.010;2023-04-22T08:50:43;26.88;;;9.35;;
51174;SDS011;37240;50.104;20.010;2023-04-22T08:55:46;21.08;;;8.23;;
51174;SDS011;37240;50.104;20.010;2023-04-22T09:00:48;12.35;;;8.63;;
51174;SDS011;37240;50.104;20.010;2023-04-22T09:05:49;14.55;;;7.05;;
51174;SDS011;37240;50.104;20.010;2023-04-22T09:10:50;6.28;;;5.40;;
51174;SDS011;37240;50.104;20.010;2023-04-22T09:15:51;9.52;;;5.13;;
51174;SDS011;37240;50.104;20.010;2023-04-22T09:20:53;19.23;;;8.77;;
51174;SDS011;37240;50.104;20.010;2023-04-22T09:25:55;13.85;;;5.63;;
51174;SDS011;37240;50.104;20.010;2023-04-22T09:30:58;10.50;;;5.30;;
51174;SDS011;37240;50.104;20.010;2023-04-22T09:36:07;9.88;;;4.10;;
51174;SDS011;37240;50.104;20.010;2023-04-22T09:41:08;9.10;;;4.38;;
51174;SDS011;37240;50.104;20.010;2023-04-22T09:46:09;7.55;;;4.55;;
51174;SDS011;37240;50.104;20.010;2023-04-22T09:51:13;6.35;;;4.18;;
51174;SDS011;37240;50.104;20.010;2023-04-22T09:56:15;6.60;;;4.05;;
51174;SDS011;37240;50.104;20.010;2023-04-22T10:01:15;12.70;;;3.97;;
51174;SDS011;37240;50.104;20.010;2023-04-22T10:06:16;6.25;;;3.45;;
51174;SDS011;37240;50.104;20.010;2023-04-22T10:11:17;8.63;;;4.57;;
51174;SDS011;37240;50.104;20.010;2023-04-22T10:16:18;10.02;;;3.53;;
51174;SDS011;37240;50.104;20.010;2023-04-22T10:21:22;4.22;;;3.58;;
51174;SDS011;37240;50.104;20.010;2023-04-22T10:32:03;7.47;;;4.55;;
51174;SDS011;37240;50.104;20.010;2023-04-22T10:37:07;8.05;;;4.80;;
51174;SDS011;37240;50.104;20.010;2023-04-22T10:42:10;4.63;;;4.07;;
51174;SDS011;37240;50.104;20.010;2023-04-22T10:47:14;6.72;;;3.38;;
51174;SDS011;37240;50.104;20.010;2023-04-22T10:52:30;8.40;;;4.05;;
51174;SDS011;37240;50.104;20.010;2023-04-22T10:57:41;6.07;;;4.25;;
51174;SDS011;37240;50.104;20.010;2023-04-22T11:02:43;9.77;;;4.20;;
51174;SDS011;37240;50.104;20.010;2023-04-22T11:07:45;12.02;;;4.32;;
51174;SDS011;37240;50.104;20.010;2023-04-22T11:12:47;5.05;;;4.28;;
51174;SDS011;37240;50.104;20.010;2023-04-22T11:17:52;9.27;;;4.95;;
51174;SDS011;37240;50.104;20.010;2023-04-22T11:22:54;9.90;;;4.80;;
51174;SDS011;37240;50.104;20.010;2023-04-22T11:27:55;10.52;;;4.88;;
51174;SDS011;37240;50.104;20.010;2023-04-22T11:32:57;9.32;;;4.57;;
51174;SDS011;37240;50.104;20.010;2023-04-22T11:37:59;10.30;;;5.38;;
51174;SDS011;37240;50.104;20.010;2023-04-22T11:43:02;10.55;;;4.45;;
51174;SDS011;37240;50.104;20.010;2023-04-22T11:48:05;25.20;;;11.80;;
51174;SDS011;37240;50.104;20.010;2023-04-22T11:53:16;13.60;;;6.50;;
51174;SDS011;37240;50.104;20.010;2023-04-22T11:58:23;12.48;;;5.35;;
51174;SDS011;37240;50.104;20.010;2023-04-22T12:03:26;7.78;;;5.00;;
51174;SDS011;37240;50.104;20.010;2023-04-22T12:08:32;7.38;;;5.03;;
51174;SDS011;37240;50.104;20.010;2023-04-22T12:23:53;7.10;;;4.65;;
51174;SDS011;37240;50.104;20.010;2023-04-22T12:28:55;7.70;;;4.57;;
51174;SDS011;37240;50.104;20.010;2023-04-22T12:33:56;11.90;;;5.28;;
51174;SDS011;37240;50.104;20.010;2023-04-22T12:38:57;12.32;;;3.95;;
51174;SDS011;37240;50.104;20.010;2023-04-22T12:43:57;6.47;;;3.88;;
51174;SDS011;37240;50.104;20.010;2023-04-22T12:48:58;6.47;;;4.43;;
51174;SDS011;37240;50.104;20.010;2023-04-22T12:53:59;7.93;;;4.65;;
51174;SDS011;37240;50.104;20.010;2023-04-22T12:58:59;7.40;;;3.92;;
51174;SDS011;37240;50.104;20.010;2023-04-22T13:04:00;6.57;;;3.10;;
51174;SDS011;37240;50.104;20.010;2023-04-22T13:09:00;5.28;;;3.50;;
51174;SDS011;37240;50.104;20.010;2023-04-22T13:14:01;5.38;;;4.00;;
51174;SDS011;37240;50.104;20.010;2023-04-22T13:19:02;12.50;;;3.58;;
51174;SDS011;37240;50.104;20.010;2023-04-22T13:24:03;7.57;;;3.53;;
51174;SDS011;37240;50.104;20.010;2023-04-22T13:29:04;11.85;;;4.25;;
51174;SDS011;37240;50.104;20.010;2023-04-22T13:34:05;7.90;;;3.45;;
51174;SDS011;37240;50.104;20.010;2023-04-22T13:39:05;7.30;;;4.25;;
51174;SDS011;37240;50.104;20.010;2023-04-22T13:44:06;5.40;;;3.20;;
51174;SDS011;37240;50.104;20.010;2023-04-22T13:49:06;3.70;;;3.13;;
51174;SDS011;37240;50.104;20.010;2023-04-22T13:54:07;4.45;;;3.30;;
51174;SDS011;37240;50.104;20.010;2023-04-22T13:59:08;7.38;;;3.03;;
51174;SDS011;37240;50.104;20.010;2023-04-22T14:04:08;5.93;;;4.03;;
51174;SDS011;37240;50.104;20.010;2023-04-22T14:09:09;3.92;;;3.58;;
51174;SDS011;37240;50.104;20.010;2023-04-22T14:14:09;7.40;;;3.17;;
51174;SDS011;37240;50.104;20.010;2023-04-22T14:19:10;3.35;;;3.05;;
51174;SDS011;37240;50.104;20.010;2023-04-22T14:24:10;12.75;;;3.80;;
51174;SDS011;37240;50.104;20.010;2023-04-22T14:29:11;8.65;;;3.58;;
51174;SDS011;37240;50.104;20.010;2023-04-22T14:34:12;5.32;;;3.40;;
51174;SDS011;37240;50.104;20.010;2023-04-22T14:39:12;7.45;;;3.83;;
51174;SDS011;37240;50.104;20.010;2023-04-22T14:44:13;7.82;;;3.75;;
51174;SDS011;37240;50.104;20.010;2023-04-22T14:49:13;5.57;;;3.35;;
51174;SDS011;37240;50.104;20.010;2023-04-22T14:54:14;8.60;;;3.65;;
51174;SDS011;37240;50.104;20.010;2023-04-22T14:59:14;4.57;;;3.28;;
51174;SDS011;37240;50.104;20.010;2023-04-22T15:04:15;3.83;;;3.40;;
51174;SDS011;37240;50.104;20.010;2023-04-22T15:09:16;16.45;;;3.67;;
51174;SDS011;37240;50.104;20.010;2023-04-22T15:14:17;5.43;;;3.40;;
51174;SDS011;37240;50.104;20.010;2023-04-22T15:19:17;6.43;;;3.75;;
51174;SDS011;37240;50.104;20.010;2023-04-22T15:24:18;4.32;;;3.47;;
51174;SDS011;37240;50.104;20.010;2023-04-22T15:29:19;8.77;;;3.85;;
51174;SDS011;37240;50.104;20.010;2023-04-22T15:34:19;4.00;;;3.63;;
51174;SDS011;37240;50.104;20.010;2023-04-22T15:39:20;8.23;;;3.80;;
51174;SDS011;37240;50.104;20.010;2023-04-22T15:44:22;45.22;;;23.20;;
51174;SDS011;37240;50.104;20.010;2023-04-22T15:49:23;19.58;;;10.90;;
51174;SDS011;37240;50.104;20.010;2023-04-22T15:54:24;15.57;;;4.47;;
51174;SDS011;37240;50.104;20.010;2023-04-22T15:59:24;5.80;;;3.22;;
51174;SDS011;37240;50.104;20.010;2023-04-22T16:04:25;8.00;;;4.13;;
51174;SDS011;37240;50.104;20.010;2023-04-22T16:09:25;3.20;;;2.90;;
51174;SDS011;37240;50.104;20.010;2023-04-22T16:14:26;3.83;;;3.53;;
51174;SDS011;37240;50.104;20.010;2023-04-22T16:19:26;5.30;;;3.78;;
51174;SDS011;37240;50.104;20.010;2023-04-22T16:24:27;4.90;;;3.50;;
51174;SDS011;37240;50.104;20.010;2023-04-22T16:29:27;5.93;;;2.92;;
51174;SDS011;37240;50.104;20.010;2023-04-22T16:34:28;5.90;;;2.65;;
51174;SDS011;37240;50.104;20.010;2023-04-22T16:39:28;4.30;;;3.20;;
51174;SDS011;37240;50.104;20.010;2023-04-22T16:44:29;3.33;;;3.00;;
51174;SDS011;37240;50.104;20.010;2023-04-22T16:49:30;7.07;;;3.28;;
51174;SDS011;37240;50.104;20.010;2023-04-22T16:54:30;7.82;;;3.35;;
51174;SDS011;37240;50.104;20.010;2023-04-22T16:59:31;5.75;;;3.95;;
51174;SDS011;37240;50.104;20.010;2023-04-22T17:04:31;7.82;;;3.55;;
51174;SDS011;37240;50.104;20.010;2023-04-22T17:09:32;9.85;;;4.07;;
51174;SDS011;37240;50.104;20.010;2023-04-22T17:14:32;8.98;;;3.78;;
51174;SDS011;37240;50.104;20.010;2023-04-22T17:19:33;6.10;;;4.00;;
51174;SDS011;37240;50.104;20.010;2023-04-22T17:24:34;7.43;;;3.90;;
51174;SDS011;37240;50.104;20.010;2023-04-22T17:29:34;9.00;;;4.47;;
51174;SDS011;37240;50.104;20.010;2023-04-22T17:34:35;10.93;;;4.45;;
51174;SDS011;37240;50.104;20.010;2023-04-22T17:39:35;15.35;;;7.80;;
51174;SDS011;37240;50.104;20.010;2023-04-22T17:44:36;9.95;;;5.97;;
51174;SDS011;37240;50.104;20.010;2023-04-22T17:49:36;13.55;;;6.03;;
51174;SDS011;37240;50.104;20.010;2023-04-22T17:54:37;14.23;;;6.20;;
51174;SDS011;37240;50.104;20.010;2023-04-22T17:59:37;11.65;;;5.43;;
51174;SDS011;37240;50.104;20.010;2023-04-22T18:04:38;18.08;;;6.22;;
51174;SDS011;37240;50.104;20.010;2023-04-22T18:09:38;25.95;;;12.15;;
51174;SDS011;37240;50.104;20.010;2023-04-22T18:14:39;37.25;;;17.13;;
51174;SDS011;37240;50.104;20.010;2023-04-22T18:19:39;22.95;;;10.15;;
51174;SDS011;37240;50.104;20.010;2023-04-22T18:24:40;14.75;;;7.22;;
51174;SDS011;37240;50.104;20.010;2023-04-22T18:29:41;23.40;;;10.38;;
51174;SDS011;37240;50.104;20.010;2023-04-22T18:34:41;36.55;;;13.40;;
51174;SDS011;37240;50.104;20.010;2023-04-22T18:39:42;32.05;;;13.90;;
51174;SDS011;37240;50.104;20.010;2023-04-22T18:44:42;41.72;;;15.85;;
51174;SDS011;37240;50.104;20.010;2023-04-22T18:49:43;46.45;;;16.10;;
51174;SDS011;37240;50.104;20.010;2023-04-22T18:54:43;46.35;;;16.88;;
51174;SDS011;37240;50.104;20.010;2023-04-22T18:59:44;31.27;;;14.77;;
51174;SDS011;37240;50.104;20.010;2023-04-22T19:04:44;33.60;;;14.45;;
51174;SDS011;37240;50.104;20.010;2023-04-22T19:09:45;44.30;;;16.58;;
51174;SDS011;37240;50.104;20.010;2023-04-22T19:14:45;36.78;;;17.38;;
51174;SDS011;37240;50.104;20.010;2023-04-22T19:19:46;39.10;;;16.75;;
51174;SDS011;37240;50.104;20.010;2023-04-22T19:24:46;45.17;;;16.80;;
51174;SDS011;37240;50.104;20.010;2023-04-22T19:29:47;39.70;;;15.18;;
51174;SDS011;37240;50.104;20.010;2023-04-22T19:34:48;37.10;;;15.18;;
51174;SDS011;37240;50.104;20.010;2023-04-22T19:39:48;34.58;;;13.82;;
51174;SDS011;37240;50.104;20.010;2023-04-22T19:44:49;30.65;;;12.77;;
51174;SDS011;37240;50.104;20.010;2023-04-22T19:49:50;34.13;;;12.90;;
51174;SDS011;37240;50.104;20.010;2023-04-22T19:54:50;30.15;;;11.43;;
51174;SDS011;37240;50.104;20.010;2023-04-22T19:59:52;29.83;;;12.43;;
51174;SDS011;37240;50.104;20.010;2023-04-22T20:04:54;24.98;;;11.98;;
51174;SDS011;37240;50.104;20.010;2023-04-22T20:09:54;32.17;;;13.02;;
51174;SDS011;37240;50.104;20.010;2023-04-22T20:14:56;36.38;;;12.88;;
51174;SDS011;37240;50.104;20.010;2023-04-22T20:19:57;31.20;;;12.48;;
51174;SDS011;37240;50.104;20.010;2023-04-22T20:25:02;31.20;;;11.82;;
51174;SDS011;37240;50.104;20.010;2023-04-22T20:30:05;33.63;;;13.75;;
51174;SDS011;37240;50.104;20.010;2023-04-22T20:35:07;35.97;;;15.10;;
51174;SDS011;37240;50.104;20.010;2023-04-22T20:40:08;41.67;;;14.98;;
51174;SDS011;37240;50.104;20.010;2023-04-22T20:45:10;38.25;;;14.70;;
51174;SDS011;37240;50.104;20.010;2023-04-22T20:50:11;40.05;;;14.68;;
51174;SDS011;37240;50.104;20.010;2023-04-22T20:55:12;42.03;;;15.52;;
51174;SDS011;37240;50.104;20.010;2023-04-22T21:00:13;39.35;;;16.80;;
51174;SDS011;37240;50.104;20.010;2023-04-22T21:05:14;39.47;;;15.75;;
51174;SDS011;37240;50.104;20.010;2023-04-22T21:10:14;39.42;;;15.70;;
51174;SDS011;37240;50.104;20.010;2023-04-22T21:15:15;36.92;;;15.18;;
51174;SDS011;37240;50.104;20.010;2023-04-22T21:20:17;34.35;;;15.75;;
51174;SDS011;37240;50.104;20.010;2023-04-22T21:25:19;40.42;;;15.40;;
51174;SDS011;37240;50.104;20.010;2023-04-22T21:30:20;33.05;;;14.35;;
51174;SDS011;37240;50.104;20.010;2023-04-22T21:35:21;45.28;;;16.75;;
51174;SDS011;37240;50.104;20.010;2023-04-22T21:40:22;41.28;;;16.27;;
51174;SDS011;37240;50.104;20.010;2023-04-22T21:45:22;35.35;;;15.25;;
51174;SDS011;37240;50.104;20.010;2023-04-22T21:50:23;37.38;;;15.65;;
51174;SDS011;37240;50.104;20.010;2023-04-22T21:55:24;35.15;;;15.82;;
51174;SDS011;37240;50.104;20.010;2023-04-22T22:00:25;41.92;;;14.55;;
51174;SDS011;37240;50.104;20.010;2023-04-22T22:05:25;29.40;;;14.73;;
51174;SDS011;37240;50.104;20.010;2023-04-22T22:10:26;40.35;;;16.30;;
51174;SDS011;37240;50.104;20.010;2023-04-22T22:15:27;32.22;;;14.32;;
51174;SDS011;37240;50.104;20.010;2023-04-22T22:20:27;38.20;;;16.45;;
51174;SDS011;37240;50.104;20.010;2023-04-22T22:25:28;40.53;;;16.88;;
51174;SDS011;37240;50.104;20.010;2023-04-22T22:30:28;48.30;;;16.27;;
51174;SDS011;37240;50.104;20.010;2023-04-22T22:35:29;34.70;;;15.02;;
51174;SDS011;37240;50.104;20.010;2023-04-22T22:40:30;34.33;;;14.82;;
51174;SDS011;37240;50.104;20.010;2023-04-22T22:45:30;35.80;;;14.90;;
51174;SDS011;37240;50.104;20.010;2023-04-22T22:50:31;37.83;;;16.02;;
51174;SDS011;37240;50.104;20.010;2023-04-22T22:55:31;43.58;;;15.25;;
51174;SDS011;37240;50.104;20.010;2023-04-22T23:00:32;29.90;;;13.85;;
51174;SDS011;37240;50.104;20.010;2023-04-22T23:05:33;35.33;;;14.30;;
51174;SDS011;37240;50.104;20.010;2023-04-22T23:10:33;34.10;;;13.48;;
51174;SDS011;37240;50.104;20.010;2023-04-22T23:15:34;33.60;;;13.82;;
51174;SDS011;37240;50.104;20.010;2023-04-22T23:20:34;33.67;;;14.05;;
51174;SDS011;37240;50.104;20.010;2023-04-22T23:25:36;40.00;;;12.88;;
51174;SDS011;37240;50.104;20.010;2023-04-22T23:30:36;30.20;;;13.48;;
51174;SDS011;37240;50.104;20.010;2023-04-22T23:35:38;32.22;;;13.70;;
51174;SDS011;37240;50.104;20.010;2023-04-22T23:40:40;31.70;;;13.88;;
51174;SDS011;37240;50.104;20.010;2023-04-22T23:45:40;41.20;;;15.35;;
51174;SDS011;37240;50.104;20.010;2023-04-22T23:50:41;30.98;;;13.77;;
51174;SDS011;37240;50.104;20.010;2023-04-22T23:55:42;31.50;;;14.52;;
